NASA958 KFRG-KJAC
Flight info
| Callsign | NASA958 |
|---|---|
| Flight time | N/A |
| Altitude | 40000 |
| Route | COATE Q436 LAAYK/N0393F430 Q436 RAAKK Q440 DEANI WILDD MVE GILTE GLLAS DNW |
| Aircraft | E55P/M-SBDFGHJ2RWY/LB2 |
Departure
| Time | 2026-04-26 14:48 |
|---|---|
| Airport | Republic Airport (KFRG) |
Arrival
| Time | N/A |
|---|---|
| Airport | Jackson Hole Airport (KJAC) |
| Time | Latitude | Longitude | Altitude | Speed | Heading |
|---|---|---|---|---|---|
| 2026-04-26 14:36 | 40.72921 | -73.41785 | 69 ft | 0 kts | 42° |
| 2026-04-26 14:44 | 40.72926 | -73.41748 | 69 ft | 6 kts | 101° |
| 2026-04-26 14:44 | 40.72946 | -73.41700 | 69 ft | 6 kts | 42° |
| 2026-04-26 14:44 | 40.72959 | -73.41655 | 69 ft | 6 kts | 135° |
| 2026-04-26 14:45 | 40.72918 | -73.41599 | 68 ft | 10 kts | 131° |
| 2026-04-26 14:45 | 40.72882 | -73.41556 | 67 ft | 10 kts | 156° |
| 2026-04-26 14:45 | 40.72783 | -73.41547 | 67 ft | 11 kts | 182° |
| 2026-04-26 14:45 | 40.72709 | -73.41544 | 67 ft | 11 kts | 178° |
| 2026-04-26 14:46 | 40.72626 | -73.41541 | 65 ft | 12 kts | 180° |
| 2026-04-26 14:46 | 40.72530 | -73.41541 | 63 ft | 14 kts | 179° |
| 2026-04-26 14:46 | 40.72429 | -73.41538 | 63 ft | 14 kts | 179° |
| 2026-04-26 14:46 | 40.72340 | -73.41537 | 63 ft | 10 kts | 179° |
| 2026-04-26 14:47 | 40.72293 | -73.41518 | 62 ft | 6 kts | 96° |
| 2026-04-26 14:47 | 40.72297 | -73.41457 | 62 ft | 6 kts | 77° |
| 2026-04-26 14:47 | 40.72353 | -73.41431 | 61 ft | 12 kts | 359° |
| 2026-04-26 14:47 | 40.72723 | -73.41434 | 66 ft | 98 kts | 359° |
| 2026-04-26 14:48 | 40.73663 | -73.41469 | 232 ft | 161 kts | 0° |
| 2026-04-26 14:48 | 40.74838 | -73.41601 | 1241 ft | 181 kts | 352° |
| 2026-04-26 14:48 | 40.75923 | -73.42529 | 2319 ft | 207 kts | 317° |
| 2026-04-26 14:48 | 40.76736 | -73.44061 | 3660 ft | 214 kts | 304° |